»·PEaware :: N15JG KMRY-KBUR

N15JG :: KMRY-KBUR

FLIGHT INFORMATION

Flight Status: Arrived
Operator: Privately registered:
United States
More flights under this callsign
Pilot: Anonymous 11047 (11047)
Aircraft: PIPER PA-32 SARATOGA
(PA32)
More flights by this aircraft type
Origin: KMRY Monterey Peninsula
United States
Destination: KBUR Bob Hope-Burbank
United States
More flights between these airports :: More routes between these airports
Route: +
File this flight plan on PilotEdge
Remarks:
Altitude:
(Current/Filed)
9,500ft
Speed:
(Current/Filed)
0kts
Departed: 29-Mar-17 06:50 PM
Arrived: 29-Mar-17 07:57 PM
Distance/Time
Traveled:
223nm/1:07
Distance/Time
To Go:
Arrived

Flight Plot

Page will automatically refresh every two minutes.

Flight plan parsing failed; only flown route is shown


Map Options




Map Legend


Flown Route
Filed Route
Departure Airport
Arrival Airport
Navaid (VOR, NDB)
Fix

Horizontal Profiles

Position Reports

Time Latitude Longitude Heading Altitude Ground
Speed
29-Mar-17 18:50 36.574539 -121.763241 134 4596ft 155kts
29-Mar-17 18:51 36.543141 -121.722923 134 5987ft 168kts
29-Mar-17 18:52 36.514410 -121.676887 125 7516ft 173kts
29-Mar-17 18:53 36.484763 -121.629198 120 9008ft 180kts
29-Mar-17 18:54 36.465396 -121.570547 107 9914ft 194kts
29-Mar-17 18:55 36.442715 -121.507382 110 9631ft 211kts
29-Mar-17 18:56 36.422071 -121.441771 109 9692ft 204kts
29-Mar-17 18:57 36.395237 -121.378939 127 9426ft 208kts
29-Mar-17 18:58 36.365689 -121.326787 128 9463ft 194kts
29-Mar-17 18:59 36.332167 -121.275061 129 9409ft 193kts
29-Mar-17 19:00 36.298386 -121.226762 136 9468ft 188kts
29-Mar-17 19:01 36.261707 -121.181114 135 9438ft 190kts
29-Mar-17 19:02 36.224957 -121.134967 139 9388ft 191kts
29-Mar-17 19:03 36.189074 -121.086500 136 9373ft 190kts
29-Mar-17 19:04 36.150172 -121.037962 138 9481ft 210kts
29-Mar-17 19:05 36.107342 -120.984845 137 9573ft 226kts
29-Mar-17 19:06 36.062292 -120.928202 137 9576ft 234kts
29-Mar-17 19:07 36.018375 -120.870439 138 9709ft 231kts
29-Mar-17 19:08 35.973059 -120.812845 138 9598ft 236kts
29-Mar-17 19:09 35.925876 -120.757444 142 9517ft 234kts
29-Mar-17 19:10 35.884467 -120.710378 145 9435ft 233kts
29-Mar-17 19:11 35.826690 -120.681434 170 9427ft 222kts
29-Mar-17 19:12 35.767664 -120.661291 167 9482ft 221kts
29-Mar-17 19:13 35.708428 -120.640580 167 9497ft 221kts
29-Mar-17 19:14 35.650847 -120.613109 148 9530ft 224kts
29-Mar-17 19:15 35.606050 -120.558244 133 9579ft 229kts
29-Mar-17 19:16 35.566796 -120.495687 129 9514ft 233kts
29-Mar-17 19:17 35.525827 -120.434668 134 9561ft 230kts
29-Mar-17 19:18 35.482475 -120.377617 136 9626ft 230kts
29-Mar-17 19:19 35.445605 -120.328765 136 9522ft 230kts
29-Mar-17 19:20 35.400830 -120.276663 143 9497ft 226kts
29-Mar-17 19:21 35.359307 -120.221032 131 9554ft 224kts
29-Mar-17 19:22 35.319561 -120.163586 135 9616ft 220kts
29-Mar-17 19:23 35.276871 -120.109322 140 9490ft 225kts
29-Mar-17 19:24 35.232633 -120.057120 137 9453ft 226kts
29-Mar-17 19:25 35.191638 -119.999973 134 9398ft 226kts
29-Mar-17 19:26 35.150810 -119.944768 137 9530ft 220kts
29-Mar-17 19:27 35.111118 -119.888144 130 9507ft 224kts
29-Mar-17 19:28 35.071746 -119.830884 130 9574ft 222kts
29-Mar-17 19:29 35.035197 -119.772412 132 9830ft 214kts
29-Mar-17 19:30 34.997569 -119.715796 131 9782ft 226kts
29-Mar-17 19:31 34.956641 -119.657920 136 9625ft 229kts
29-Mar-17 19:32 34.921145 -119.594465 125 9566ft 227kts
29-Mar-17 19:33 34.884959 -119.535837 129 9649ft 222kts
29-Mar-17 19:34 34.848997 -119.473679 129 9583ft 228kts
29-Mar-17 19:35 34.806853 -119.417604 135 9670ft 220kts
29-Mar-17 19:36 34.768700 -119.358758 132 9737ft 222kts
29-Mar-17 19:37 34.733374 -119.308499 126 9826ft 219kts
29-Mar-17 19:38 34.697975 -119.249805 122 9911ft 216kts
29-Mar-17 19:39 34.664056 -119.190701 119 9767ft 223kts
29-Mar-17 19:40 34.627438 -119.129616 124 9705ft 220kts
29-Mar-17 19:41 34.590617 -119.069893 112 9584ft 221kts
29-Mar-17 19:42 34.557598 -119.007853 121 9557ft 223kts
29-Mar-17 19:43 34.517144 -118.951180 136 9613ft 218kts
29-Mar-17 19:44 34.469074 -118.903816 128 9108ft 217kts
29-Mar-17 19:45 34.438673 -118.843486 110 7937ft 207kts
29-Mar-17 19:46 34.411175 -118.785180 128 6912ft 205kts
29-Mar-17 19:47 34.375441 -118.734977 124 5827ft 206kts
29-Mar-17 19:48 34.343714 -118.681288 122 5039ft 190kts
29-Mar-17 19:49 34.315462 -118.629689 129 4200ft 184kts
29-Mar-17 19:50 34.280145 -118.593137 174 3508ft 175kts
29-Mar-17 19:51 34.238392 -118.583012 169 3077ft 168kts
29-Mar-17 19:52 34.196670 -118.574611 157 2943ft 146kts
29-Mar-17 19:53 34.193421 -118.535390 73 3231ft 156kts
29-Mar-17 19:54 34.198415 -118.491407 85 3325ft 169kts
29-Mar-17 19:55 34.198868 -118.443538 89 2531ft 177kts
29-Mar-17 19:56 34.198427 -118.404453 89 1530ft 118kts
29-Mar-17 19:57 34.198042 -118.376987 89 935ft 98kts
29-Mar-17 19:58 34.197653 -118.358304 116 779ft 12kts
29-Mar-17 19:59 34.196950 -118.357985 176 779ft 0kts
29-Mar-17 20:00 34.195965 -118.357546 77 779ft 0kts
29-Mar-17 20:01 34.195965 -118.357546 77 779ft 0kts
29-Mar-17 20:02 34.195965 -118.357546 77 779ft 0kts
29-Mar-17 20:03 34.195965 -118.357546 77 779ft 0kts

Navigation Log

Ident Type
Flight plan parsing failed, navigation log unavailable